createdAt,value
2018-04-13T00:02:10.997Z,93429.92
2018-04-13T00:04:38.531Z,93426.32
2018-04-13T00:07:06.085Z,93426.97
2018-04-13T00:09:33.808Z,93434.57
2018-04-13T00:12:01.352Z,93437.50
2018-04-13T00:14:28.928Z,93439.42
2018-04-13T00:16:56.519Z,93431.27
2018-04-13T00:19:24.071Z,93437.69
2018-04-13T00:21:51.616Z,93437.91
2018-04-13T00:24:19.338Z,93436.76
2018-04-13T00:26:47.745Z,93440.75
2018-04-13T00:29:15.324Z,93448.52
2018-04-13T00:31:43.053Z,93444.80
2018-04-13T00:34:10.594Z,93445.33
2018-04-13T00:36:38.139Z,93441.20
2018-04-13T00:39:05.748Z,93441.55
2018-04-13T00:41:33.292Z,93435.42
2018-04-13T00:44:00.840Z,93434.22
2018-04-13T00:46:28.420Z,93438.44
2018-04-13T00:48:55.963Z,93436.66
2018-04-13T00:51:23.511Z,93438.87
2018-04-13T00:53:51.076Z,93439.81
2018-04-13T00:56:18.623Z,93438.14
2018-04-13T00:58:46.172Z,93436.19
2018-04-13T01:01:14.060Z,93438.76
2018-04-13T01:03:41.615Z,93445.29
2018-04-13T01:06:09.162Z,93444.47
2018-04-13T01:08:37.050Z,93443.73
2018-04-13T01:11:04.611Z,93451.52
2018-04-13T01:13:32.176Z,93448.63
2018-04-13T01:15:59.894Z,93440.48
2018-04-13T01:18:27.441Z,93436.35
2018-04-13T01:20:54.981Z,93435.53
2018-04-13T01:23:22.698Z,93436.06
2018-04-13T01:25:50.237Z,93428.47
2018-04-13T01:28:17.775Z,93431.02
2018-04-13T01:30:45.499Z,93422.41
2018-04-13T01:33:13.045Z,93429.28
2018-04-13T01:35:40.581Z,93434.11
2018-04-13T01:38:08.173Z,93441.84
2018-04-13T01:40:35.717Z,93439.98
2018-04-13T01:43:03.284Z,93437.87
2018-04-13T01:45:31.002Z,93437.14
2018-04-13T01:47:58.553Z,93432.66
2018-04-13T01:50:26.092Z,93441.06
2018-04-13T01:52:53.903Z,93438.57
2018-04-13T01:55:21.455Z,93434.85
2018-04-13T01:57:49.001Z,93440.13
2018-04-13T02:00:16.552Z,93445.78
2018-04-13T02:02:44.099Z,93437.66
2018-04-13T02:05:11.671Z,93429.73
2018-04-13T02:07:39.221Z,93425.36
2018-04-13T02:10:06.756Z,93432.14
2018-04-13T02:12:34.477Z,93441.78
2018-04-13T02:15:02.011Z,93439.47
2018-04-13T02:17:29.559Z,93443.06
2018-04-13T02:19:57.323Z,93442.94
2018-04-13T02:22:24.864Z,93445.23
2018-04-13T02:24:52.405Z,93444.61
2018-04-13T02:27:20.133Z,93439.44
2018-04-13T02:29:47.680Z,93437.53
2018-04-13T02:32:15.227Z,93443.20
2018-04-13T02:34:42.987Z,93450.04
2018-04-13T02:37:10.546Z,93448.05
2018-04-13T02:39:38.101Z,93453.92
2018-04-13T02:42:05.684Z,93463.31
2018-04-13T02:44:33.228Z,93461.42
2018-04-13T02:47:00.773Z,93461.86
2018-04-13T02:49:28.491Z,93461.86
2018-04-13T02:51:56.049Z,93461.04
2018-04-13T02:54:23.588Z,93461.06
2018-04-13T02:56:51.170Z,93464.62
2018-04-13T02:59:18.707Z,93464.78
2018-04-13T03:01:46.251Z,93470.83
2018-04-13T03:04:14.120Z,93471.42
2018-04-13T03:06:41.663Z,93469.75
2018-04-13T03:09:09.199Z,93464.89
2018-04-13T03:11:36.972Z,93458.76
2018-04-13T03:14:04.519Z,93460.12
2018-04-13T03:16:32.070Z,93465.95
2018-04-13T03:18:59.801Z,93461.33
2018-04-13T03:21:27.349Z,93468.30
2018-04-13T03:23:54.893Z,93466.19
2018-04-13T03:26:22.464Z,93464.70
2018-04-13T03:28:50.019Z,93475.41
2018-04-13T03:31:17.567Z,93480.43
2018-04-13T03:33:45.261Z,93482.34
2018-04-13T03:36:12.813Z,93491.77
2018-04-13T03:38:40.356Z,93493.61
2018-04-13T03:41:07.932Z,93497.36
2018-04-13T03:43:35.481Z,93497.72
2018-04-13T03:46:03.026Z,93498.56
2018-04-13T03:48:30.826Z,93494.05
2018-04-13T03:50:58.363Z,93495.70
2018-04-13T03:53:25.918Z,93497.51
2018-04-13T03:55:53.511Z,93494.64
2018-04-13T03:58:21.051Z,93501.59
2018-04-13T04:00:48.600Z,93500.58
2018-04-13T04:03:16.355Z,93503.20
2018-04-13T04:05:43.934Z,93492.49
2018-04-13T04:08:11.493Z,93493.98
2018-04-13T04:10:39.208Z,93506.99
2018-04-13T04:13:06.767Z,93499.09
2018-04-13T04:15:34.310Z,93501.38
2018-04-13T04:18:01.932Z,93502.84
2018-04-13T04:20:41.220Z,93508.84
2018-04-13T04:23:20.759Z,93516.69
2018-04-13T04:26:00.056Z,93519.90
2018-04-13T04:28:27.803Z,93517.34
2018-04-13T04:30:55.345Z,93517.70
2018-04-13T04:33:22.894Z,93529.73
2018-04-13T04:35:50.469Z,93528.70
2018-04-13T04:38:18.039Z,93524.14
2018-04-13T04:40:45.610Z,93526.00
2018-04-13T04:43:13.300Z,93523.53
2018-04-13T04:45:40.857Z,93524.61
2018-04-13T04:48:08.404Z,93526.05
2018-04-13T04:50:36.301Z,93525.13
2018-04-13T04:53:03.865Z,93524.95
2018-04-13T04:55:31.424Z,93527.52
2018-04-13T04:57:59.014Z,93531.20
2018-04-13T05:00:26.572Z,93532.63
2018-04-13T05:02:54.127Z,93529.92
2018-04-13T05:05:21.868Z,93540.72
2018-04-13T05:07:49.419Z,93535.91
2018-04-13T05:10:16.956Z,93528.88
2018-04-13T05:12:44.544Z,93539.05
2018-04-13T05:15:12.124Z,93538.18
2018-04-13T05:17:39.682Z,93532.03
2018-04-13T05:20:07.260Z,93536.66
2018-04-13T05:22:34.825Z,93535.92
2018-04-13T05:25:02.388Z,93541.58
2018-04-13T05:27:30.118Z,93542.00
2018-04-13T05:29:57.675Z,93543.45
2018-04-13T05:32:25.229Z,93550.21
2018-04-13T05:34:52.814Z,93552.97
2018-04-13T05:37:20.361Z,93552.11
2018-04-13T05:39:47.900Z,93550.86
2018-04-13T05:42:15.478Z,93549.52
2018-04-13T05:44:43.031Z,93554.63
2018-04-13T05:47:10.579Z,93558.01
2018-04-13T05:49:38.313Z,93566.66
2018-04-13T05:52:05.861Z,93565.23
2018-04-13T05:54:33.432Z,93565.41
2018-04-13T05:57:01.020Z,93563.09
2018-04-13T05:59:28.577Z,93566.72
2018-04-13T06:01:56.169Z,93573.77
2018-04-13T06:04:23.766Z,93571.73
2018-04-13T06:06:51.331Z,93573.66
2018-04-13T06:09:18.879Z,93574.39
2018-04-13T06:11:46.609Z,93582.64
2018-04-13T06:14:14.167Z,93593.34
2018-04-13T06:16:41.718Z,93601.77
2018-04-13T06:19:10.177Z,93599.37
2018-04-13T06:21:37.741Z,93606.66
2018-04-13T06:24:05.300Z,93607.97
2018-04-13T06:26:33.032Z,93609.35
2018-04-13T06:29:00.589Z,93617.92
2018-04-13T06:31:28.141Z,93625.62
2018-04-13T06:33:55.862Z,93622.05
2018-04-13T06:36:23.435Z,93617.34
2018-04-13T06:38:51.017Z,93621.42
2018-04-13T06:41:18.608Z,93624.27
2018-04-13T06:43:46.204Z,93626.77
2018-04-13T06:46:13.750Z,93629.94
2018-04-13T06:48:41.386Z,93629.95
2018-04-13T06:51:08.923Z,93631.29
2018-04-13T06:53:36.485Z,93631.31
2018-04-13T06:56:04.135Z,93634.80
2018-04-13T06:58:31.691Z,93627.12
2018-04-13T07:00:59.253Z,93627.86
2018-04-13T07:03:26.850Z,93630.41
2018-04-13T07:05:54.401Z,93627.10
2018-04-13T07:08:21.999Z,93632.91
2018-04-13T07:10:49.588Z,93627.81
2018-04-13T07:13:17.148Z,93627.38
2018-04-13T07:15:44.699Z,93626.76
2018-04-13T07:18:12.285Z,93625.52
2018-04-13T07:20:39.859Z,93628.69
2018-04-13T07:23:07.417Z,93625.58
2018-04-13T07:25:35.013Z,93628.41
2018-04-13T07:28:02.595Z,93621.97
2018-04-13T07:30:30.148Z,93627.16
2018-04-13T07:32:57.732Z,93629.31
2018-04-13T07:35:25.289Z,93627.84
2018-04-13T07:37:52.854Z,93620.16
2018-04-13T07:40:20.455Z,93623.19
2018-04-13T07:42:48.009Z,93625.12
2018-04-13T07:45:15.564Z,93623.11
2018-04-13T07:47:43.161Z,93624.14
2018-04-13T07:50:10.749Z,93638.32
2018-04-13T07:52:38.301Z,93630.55
2018-04-13T07:55:05.895Z,93631.72
2018-04-13T07:57:33.444Z,93627.63
2018-04-13T08:00:00.984Z,93625.20
2018-04-13T08:02:28.827Z,93632.59
2018-04-13T08:04:56.372Z,93622.44
2018-04-13T08:07:23.925Z,93621.77
2018-04-13T08:09:51.519Z,93619.02
2018-04-13T08:12:19.141Z,93622.80
2018-04-13T08:14:46.680Z,93630.36
2018-04-13T08:17:14.262Z,93628.34
2018-04-13T08:19:41.808Z,93627.28
2018-04-13T08:22:09.352Z,93625.38
2018-04-13T08:24:37.064Z,93626.08
2018-04-13T08:27:04.601Z,93620.89
2018-04-13T08:29:32.143Z,93625.54
2018-04-13T08:31:59.861Z,93621.05
2018-04-13T08:34:27.407Z,93620.73
2018-04-13T08:36:54.960Z,93614.44
2018-04-13T08:39:22.540Z,93614.13
2018-04-13T08:41:50.098Z,93613.77
2018-04-13T08:44:17.641Z,93611.72
2018-04-13T08:46:45.501Z,93606.09
2018-04-13T08:49:13.157Z,93606.69
2018-04-13T08:51:40.628Z,93607.13
2018-04-13T08:54:08.279Z,93610.90
2018-04-13T08:56:35.804Z,93614.77
2018-04-13T08:59:03.348Z,93614.91
2018-04-13T09:01:30.900Z,93613.67
2018-04-13T09:03:58.449Z,93614.43
2018-04-13T09:06:26.250Z,93603.77
2018-04-13T09:08:53.778Z,93619.64
2018-04-13T09:11:21.337Z,93617.47
2018-04-13T09:13:49.207Z,93614.22
2018-04-13T09:16:16.791Z,93614.42
2018-04-13T09:18:44.377Z,93608.67
2018-04-13T09:21:11.951Z,93609.82
2018-04-13T09:23:39.488Z,93616.28
2018-04-13T09:26:07.040Z,93612.19
2018-04-13T09:28:34.617Z,93602.66
2018-04-13T09:31:02.194Z,93599.66
2018-04-13T09:33:29.759Z,93601.85
2018-04-13T09:35:57.487Z,93598.89
2018-04-13T09:38:25.032Z,93593.48
2018-04-13T09:40:52.621Z,93596.24
2018-04-13T09:43:20.188Z,93599.37
2018-04-13T09:45:47.741Z,93592.23
2018-04-13T09:48:15.293Z,93589.22
2018-04-13T09:50:43.164Z,93589.39
2018-04-13T09:53:10.713Z,93590.73
2018-04-13T09:55:38.260Z,93586.73
2018-04-13T09:58:05.840Z,93591.27
2018-04-13T10:00:33.413Z,93587.44
2018-04-13T10:03:03.765Z,93593.80
2018-04-13T10:05:31.359Z,93595.41
2018-04-13T10:07:58.899Z,93592.70
2018-04-13T10:10:26.443Z,93591.27
2018-04-13T10:12:54.035Z,93578.41
2018-04-13T10:15:21.588Z,93576.81
2018-04-13T10:17:49.142Z,93575.70
2018-04-13T10:20:16.734Z,93573.94
2018-04-13T10:22:44.274Z,93573.45
2018-04-13T10:25:11.832Z,93569.50
2018-04-13T10:27:39.563Z,93576.90
2018-04-13T10:30:07.117Z,93573.08
2018-04-13T10:32:34.676Z,93582.95
2018-04-13T10:35:02.401Z,93570.49
2018-04-13T10:37:29.945Z,93568.28
2018-04-13T10:39:57.509Z,93573.61
2018-04-13T10:42:25.360Z,93571.14
2018-04-13T10:44:52.905Z,93570.11
2018-04-13T10:47:20.447Z,93574.08
2018-04-13T10:49:48.168Z,93561.59
2018-04-13T10:52:15.720Z,93573.73
2018-04-13T10:54:43.273Z,93578.31
2018-04-13T10:57:11.322Z,93580.19
2018-04-13T10:59:38.865Z,93568.24
2018-04-13T11:02:06.410Z,93569.09
2018-04-13T11:04:34.010Z,93557.93
2018-04-13T11:07:01.562Z,93558.27
2018-04-13T11:09:29.103Z,93560.36
2018-04-13T11:11:56.687Z,93563.33
2018-04-13T11:14:24.265Z,93558.22
2018-04-13T11:16:51.845Z,93555.34
2018-04-13T11:19:19.419Z,93553.38
2018-04-13T11:21:46.978Z,93553.59
2018-04-13T11:24:14.518Z,93556.19
2018-04-13T11:26:42.241Z,93553.37
2018-04-13T11:29:09.778Z,93548.78
2018-04-13T11:31:37.358Z,93554.99
2018-04-13T11:34:05.622Z,93549.66
2018-04-13T11:36:33.169Z,93548.16
2018-04-13T11:39:00.728Z,93540.91
2018-04-13T11:41:28.384Z,93539.19
2018-04-13T11:43:55.898Z,93547.99
2018-04-13T11:46:23.435Z,93543.27
2018-04-13T11:48:51.114Z,93542.37
2018-04-13T11:51:18.660Z,93551.36
2018-04-13T11:53:46.233Z,93542.48
2018-04-13T11:56:13.804Z,93538.52
2018-04-13T11:58:41.346Z,93532.11
2018-04-13T12:01:08.928Z,93537.63
2018-04-13T12:03:36.506Z,93534.78
2018-04-13T12:06:04.065Z,93536.30
2018-04-13T12:08:31.616Z,93529.98
2018-04-13T12:10:59.200Z,93531.67
2018-04-13T12:13:26.745Z,93532.59
2018-04-13T12:15:54.289Z,93536.11
2018-04-13T12:18:21.892Z,93531.05
2018-04-13T12:20:50.225Z,93536.92
2018-04-13T12:23:17.780Z,93535.52
2018-04-13T12:25:45.697Z,93533.39
2018-04-13T12:28:13.250Z,93524.98
2018-04-13T12:30:40.813Z,93524.87
2018-04-13T12:33:08.528Z,93530.58
2018-04-13T12:35:36.085Z,93522.73
2018-04-13T12:38:03.680Z,93522.84
2018-04-13T12:40:31.267Z,93525.05
2018-04-13T12:42:58.813Z,93513.51
2018-04-13T12:45:26.374Z,93517.11
2018-04-13T12:47:53.971Z,93512.78
2018-04-13T12:50:21.548Z,93509.76
2018-04-13T12:52:49.163Z,93504.10
2018-04-13T12:55:16.892Z,93506.19
2018-04-13T12:57:44.444Z,93503.22
2018-04-13T13:00:12.022Z,93497.31
2018-04-13T13:02:39.644Z,93502.17
2018-04-13T13:05:07.193Z,93498.08
2018-04-13T13:07:34.738Z,93496.92
2018-04-13T13:10:02.479Z,93494.92
2018-04-13T13:12:30.065Z,93494.55
2018-04-13T13:14:57.617Z,93496.05
2018-04-13T13:17:25.504Z,93498.87
2018-04-13T13:19:53.052Z,93491.84
2018-04-13T13:22:20.612Z,93491.70
2018-04-13T13:24:48.201Z,93491.61
2018-04-13T13:27:15.748Z,93486.61
2018-04-13T13:29:43.293Z,93488.12
2018-04-13T13:32:10.895Z,93487.50
2018-04-13T13:34:38.446Z,93492.17
2018-04-13T13:37:06.141Z,93485.59
2018-04-13T13:39:33.733Z,93483.97
2018-04-13T13:42:01.272Z,93483.38
2018-04-13T13:44:28.836Z,93487.47
2018-04-13T13:46:56.424Z,93488.28
2018-04-13T13:49:23.973Z,93480.64
2018-04-13T13:51:51.513Z,93484.06
2018-04-13T13:54:19.100Z,93484.20
2018-04-13T13:56:46.652Z,93479.14
2018-04-13T13:59:14.226Z,93481.24
2018-04-13T14:01:41.776Z,93480.19
2018-04-13T14:04:09.333Z,93481.56
2018-04-13T14:06:36.929Z,93484.95
2018-04-13T14:09:04.525Z,93481.81
2018-04-13T14:11:32.089Z,93480.31
2018-04-13T14:13:59.692Z,93482.78
2018-04-13T14:16:27.248Z,93483.92
2018-04-13T14:18:54.807Z,93485.02
2018-04-13T14:21:22.397Z,93485.52
2018-04-13T14:23:49.944Z,93493.83
2018-04-13T14:26:17.495Z,93494.01
2018-04-13T14:28:45.087Z,93484.36
2018-04-13T14:31:12.634Z,93487.61
2018-04-13T14:33:40.184Z,93499.27
2018-04-13T14:36:07.762Z,93496.02
2018-04-13T14:38:35.311Z,93497.27
2018-04-13T14:41:02.867Z,93494.49
2018-04-13T14:43:30.464Z,93503.54
2018-04-13T14:45:58.027Z,93496.95
2018-04-13T14:48:25.566Z,93498.38
2018-04-13T14:50:53.174Z,93497.05
2018-04-13T14:53:20.725Z,93505.95
2018-04-13T14:55:48.278Z,93498.66
2018-04-13T14:58:15.997Z,93506.03
2018-04-13T15:00:43.567Z,93494.13
2018-04-13T15:03:11.104Z,93501.20
2018-04-13T15:05:38.846Z,93503.02
2018-04-13T15:08:06.399Z,93505.34
2018-04-13T15:10:33.937Z,93505.49
2018-04-13T15:13:01.553Z,93506.91
2018-04-13T15:15:29.085Z,93506.38
2018-04-13T15:17:56.636Z,93509.02
2018-04-13T15:20:24.213Z,93512.77
2018-04-13T15:22:51.782Z,93510.48
2018-04-13T15:25:19.349Z,93514.30
2018-04-13T15:27:47.068Z,93511.62
2018-04-13T15:30:14.659Z,93519.24
2018-04-13T15:32:42.213Z,93515.94
2018-04-13T15:35:10.124Z,93515.16
2018-04-13T15:37:37.676Z,93509.89
2018-04-13T15:40:05.234Z,93512.21
2018-04-13T15:42:32.829Z,93511.15
2018-04-13T15:45:00.376Z,93515.59
2018-04-13T15:47:27.920Z,93519.45
2018-04-13T15:49:55.508Z,93516.09
2018-04-13T15:52:23.055Z,93517.20
2018-04-13T15:54:50.612Z,93514.48
2018-04-13T15:57:18.411Z,93522.67
2018-04-13T15:59:45.949Z,93523.64
2018-04-13T16:02:13.503Z,93544.29
2018-04-13T16:04:41.233Z,93570.86
2018-04-13T16:07:08.809Z,93576.09
2018-04-13T16:09:36.357Z,93573.73
2018-04-13T16:12:04.260Z,93577.37
2018-04-13T16:14:31.837Z,93583.09
2018-04-13T16:16:59.385Z,93594.55
2018-04-13T16:19:27.117Z,93590.36
2018-04-13T16:21:54.685Z,93590.95
2018-04-13T16:24:22.244Z,93596.61
2018-04-13T16:26:49.829Z,93603.35
2018-04-13T16:29:17.374Z,93602.06
2018-04-13T16:31:44.921Z,93602.45
2018-04-13T16:34:12.513Z,93599.54
2018-04-13T16:36:40.100Z,93603.48
2018-04-13T16:39:07.658Z,93604.94
2018-04-13T16:41:35.388Z,93601.06
2018-04-13T16:44:02.937Z,93602.83
2018-04-13T16:46:30.481Z,93608.21
2018-04-13T16:48:58.119Z,93607.77
2018-04-13T16:51:25.693Z,93609.59
2018-04-13T16:53:53.263Z,93609.43
2018-04-13T16:56:21.157Z,93614.95
2018-04-13T16:58:48.732Z,93615.66
2018-04-13T17:01:16.309Z,93618.98
2018-04-13T17:03:43.884Z,93619.44
2018-04-13T17:06:11.448Z,93630.11
2018-04-13T17:08:39.024Z,93623.36
2018-04-13T17:11:07.020Z,93629.28
2018-04-13T17:13:34.573Z,93631.05
2018-04-13T17:16:02.113Z,93627.91
2018-04-13T17:18:29.840Z,93630.41
2018-04-13T17:20:57.424Z,93628.87
2018-04-13T17:23:24.997Z,93633.52
2018-04-13T17:25:52.630Z,93638.82
2018-04-13T17:28:20.185Z,93641.27
2018-04-13T17:30:47.741Z,93648.09
2018-04-13T17:33:15.488Z,93657.09
2018-04-13T17:35:43.042Z,93660.47
2018-04-13T17:38:11.469Z,93665.25
2018-04-13T17:40:39.057Z,93677.84
2018-04-13T17:43:06.620Z,93676.97
2018-04-13T17:45:34.232Z,93685.88
2018-04-13T17:48:01.925Z,93695.72
2018-04-13T17:50:29.484Z,93699.24
2018-04-13T17:52:57.035Z,93708.65
2018-04-13T17:55:24.771Z,93709.39
2018-04-13T17:57:52.328Z,93720.93
2018-04-13T18:00:19.884Z,93722.90
2018-04-13T18:02:47.760Z,93724.09
2018-04-13T18:05:15.333Z,93730.45
2018-04-13T18:07:42.905Z,93736.41
2018-04-13T18:10:10.495Z,93741.91
2018-04-13T18:12:38.041Z,93752.39
2018-04-13T18:15:05.603Z,93751.76
2018-04-13T18:17:33.188Z,93750.40
2018-04-13T18:20:00.931Z,93752.83
2018-04-13T18:22:28.493Z,93756.95
2018-04-13T18:24:56.078Z,93756.33
2018-04-13T18:27:23.629Z,93754.06
2018-04-13T18:29:51.181Z,93752.80
2018-04-13T18:32:18.923Z,93770.84
2018-04-13T18:34:47.249Z,93767.97
2018-04-13T18:37:14.793Z,93772.52
2018-04-13T18:39:42.389Z,93776.81
2018-04-13T18:42:09.965Z,93777.83
2018-04-13T18:44:37.530Z,93775.33
2018-04-13T18:47:05.150Z,93775.84
2018-04-13T18:49:32.717Z,93782.36
2018-04-13T18:52:00.267Z,93785.05
2018-04-13T18:54:28.037Z,93789.16
2018-04-13T18:56:55.603Z,93791.03
2018-04-13T18:59:23.162Z,93798.73
2018-04-13T19:01:50.705Z,93799.86
2018-04-13T19:04:18.262Z,93797.63
2018-04-13T19:06:45.940Z,93803.02
2018-04-13T19:09:13.489Z,93807.95
2018-04-13T19:11:41.088Z,93811.20
2018-04-13T19:14:08.834Z,93817.07
2018-04-13T19:16:36.415Z,93822.70
2018-04-13T19:19:04.000Z,93820.41
2018-04-13T19:21:31.739Z,93825.25
2018-04-13T19:23:59.293Z,93826.05
2018-04-13T19:26:26.854Z,93832.11
2018-04-13T19:28:54.598Z,93835.05
2018-04-13T19:31:22.167Z,93841.41
2018-04-13T19:33:49.729Z,93841.80
2018-04-13T19:36:17.459Z,93846.09
2018-04-13T19:38:45.037Z,93840.38
2018-04-13T19:41:12.594Z,93841.34
2018-04-13T19:43:40.182Z,93838.75
2018-04-13T19:46:07.740Z,93838.45
2018-04-13T19:48:35.290Z,93844.31
2018-04-13T19:51:03.016Z,93848.91
2018-04-13T19:53:30.571Z,93856.34
2018-04-13T19:55:58.124Z,93855.90
2018-04-13T19:58:25.719Z,93855.38
2018-04-13T20:00:53.268Z,93855.95
2018-04-13T20:03:20.848Z,93851.66
2018-04-13T20:05:48.420Z,93848.67
2018-04-13T20:08:15.973Z,93848.87
2018-04-13T20:10:43.516Z,93851.42
2018-04-13T20:13:11.107Z,93857.89
2018-04-13T20:15:38.659Z,93861.03
2018-04-13T20:18:06.207Z,93859.83
2018-04-13T20:20:33.796Z,93861.58
2018-04-13T20:23:01.397Z,93859.68
2018-04-13T20:25:28.968Z,93848.69
2018-04-13T20:27:56.568Z,93853.38
2018-04-13T20:30:24.151Z,93851.85
2018-04-13T20:32:51.714Z,93861.61
2018-04-13T20:35:19.596Z,93864.81
2018-04-13T20:37:47.141Z,93861.48
2018-04-13T20:40:14.693Z,93863.61
2018-04-13T20:42:42.424Z,93866.90
2018-04-13T20:45:09.976Z,93866.97
2018-04-13T20:47:37.541Z,93872.75
2018-04-13T20:50:05.133Z,93877.16
2018-04-13T20:52:32.681Z,93881.97
2018-04-13T20:55:00.250Z,93884.61
2018-04-13T20:57:27.869Z,93886.64
2018-04-13T20:59:55.451Z,93888.44
2018-04-13T21:02:22.997Z,93887.27
2018-04-13T21:04:50.728Z,93895.47
2018-04-13T21:07:18.266Z,93885.72
2018-04-13T21:09:45.826Z,93898.86
2018-04-13T21:12:13.412Z,93907.31
2018-04-13T21:14:40.948Z,93901.86
2018-04-13T21:17:08.496Z,93903.64
2018-04-13T21:19:36.077Z,93899.14
2018-04-13T21:22:03.643Z,93900.78
2018-04-13T21:24:31.211Z,93896.42
2018-04-13T21:26:59.084Z,93899.95
2018-04-13T21:29:26.669Z,93893.84
2018-04-13T21:31:54.216Z,93903.70
2018-04-13T21:34:22.097Z,93900.28
2018-04-13T21:36:49.651Z,93894.80
2018-04-13T21:39:17.195Z,93900.98
2018-04-13T21:41:44.767Z,93902.72
2018-04-13T21:44:12.446Z,93902.18
2018-04-13T21:46:39.984Z,93901.27
2018-04-13T21:49:07.585Z,93909.08
2018-04-13T21:51:35.143Z,93909.24
2018-04-13T21:54:02.698Z,93913.61
2018-04-13T21:56:30.293Z,93916.81
2018-04-13T21:58:57.837Z,93918.30
2018-04-13T22:01:25.380Z,93920.45
2018-04-13T22:03:53.256Z,93926.63
2018-04-13T22:06:20.818Z,93932.23
2018-04-13T22:08:48.365Z,93929.98
2018-04-13T22:11:15.947Z,93934.54
2018-04-13T22:13:46.477Z,93935.20
2018-04-13T22:16:14.049Z,93933.27
2018-04-13T22:18:41.779Z,93936.41
2018-04-13T22:21:09.326Z,93934.00
2018-04-13T22:23:36.862Z,93934.53
2018-04-13T22:26:04.583Z,93940.47
2018-04-13T22:28:32.128Z,93939.37
2018-04-13T22:30:59.676Z,93940.02
2018-04-13T22:33:27.540Z,93938.28
2018-04-13T22:35:55.092Z,93939.58
2018-04-13T22:38:22.630Z,93945.63
2018-04-13T22:40:50.209Z,93946.39
2018-04-13T22:43:17.745Z,93945.73
2018-04-13T22:45:45.291Z,93954.27
2018-04-13T22:48:13.027Z,93951.48
2018-04-13T22:50:40.559Z,93943.82
2018-04-13T22:53:08.112Z,93943.95
2018-04-13T22:55:35.669Z,93952.15
2018-04-13T22:58:03.275Z,93949.75
2018-04-13T23:00:30.826Z,93953.72
2018-04-13T23:02:58.377Z,93956.47
2018-04-13T23:05:25.915Z,93957.64
2018-04-13T23:07:53.477Z,93961.14
2018-04-13T23:10:21.020Z,93964.48
2018-04-13T23:12:48.579Z,93968.72
2018-04-13T23:15:16.148Z,93965.78
2018-04-13T23:17:43.707Z,93963.40
2018-04-13T23:20:11.273Z,93968.56
2018-04-13T23:22:39.166Z,93967.70
2018-04-13T23:25:06.725Z,93974.55
2018-04-13T23:27:34.268Z,93977.03
2018-04-13T23:30:01.996Z,93973.24
2018-04-13T23:32:29.536Z,93969.05
2018-04-13T23:34:57.113Z,93976.17
2018-04-13T23:37:24.869Z,93982.00
2018-04-13T23:39:52.417Z,93980.30
2018-04-13T23:42:19.964Z,93985.89
2018-04-13T23:44:47.694Z,93982.02
2018-04-13T23:47:15.249Z,93984.02
2018-04-13T23:49:42.799Z,93983.69
2018-04-13T23:52:10.380Z,93983.08
2018-04-13T23:54:37.929Z,93982.47
2018-04-13T23:57:05.476Z,93986.16
2018-04-13T23:59:33.110Z,93991.01
